sensor_id;sensor_type;location;lat;lon;timestamp;P1;durP1;ratioP1;P2;durP2;ratioP2
31694;SDS011;18289;51.330;4.946;2023-03-03T00:01:04;33.65;;;19.88;;
31694;SDS011;18289;51.330;4.946;2023-03-03T00:03:31;37.88;;;21.25;;
31694;SDS011;18289;51.330;4.946;2023-03-03T00:05:57;38.15;;;20.65;;
31694;SDS011;18289;51.330;4.946;2023-03-03T00:08:23;35.45;;;20.15;;
31694;SDS011;18289;51.330;4.946;2023-03-03T00:10:50;42.00;;;21.88;;
31694;SDS011;18289;51.330;4.946;2023-03-03T00:13:17;40.58;;;21.58;;
31694;SDS011;18289;51.330;4.946;2023-03-03T00:15:47;36.67;;;20.63;;
31694;SDS011;18289;51.330;4.946;2023-03-03T00:18:18;40.50;;;21.67;;
31694;SDS011;18289;51.330;4.946;2023-03-03T00:20:54;39.28;;;20.83;;
31694;SDS011;18289;51.330;4.946;2023-03-03T00:26:00;40.90;;;21.80;;
31694;SDS011;18289;51.330;4.946;2023-03-03T00:28:29;41.03;;;20.85;;
31694;SDS011;18289;51.330;4.946;2023-03-03T00:31:00;41.33;;;19.73;;
31694;SDS011;18289;51.330;4.946;2023-03-03T00:33:31;40.30;;;20.58;;
31694;SDS011;18289;51.330;4.946;2023-03-03T00:36:20;35.17;;;19.10;;
31694;SDS011;18289;51.330;4.946;2023-03-03T00:39:13;35.50;;;19.30;;
31694;SDS011;18289;51.330;4.946;2023-03-03T00:41:51;38.72;;;19.52;;
31694;SDS011;18289;51.330;4.946;2023-03-03T00:47:48;43.03;;;21.60;;
31694;SDS011;18289;51.330;4.946;2023-03-03T00:52:39;41.80;;;20.30;;
31694;SDS011;18289;51.330;4.946;2023-03-03T00:55:09;46.72;;;22.90;;
31694;SDS011;18289;51.330;4.946;2023-03-03T00:57:36;43.22;;;22.10;;
31694;SDS011;18289;51.330;4.946;2023-03-03T01:00:01;46.15;;;22.92;;
31694;SDS011;18289;51.330;4.946;2023-03-03T01:02:28;45.60;;;22.63;;
31694;SDS011;18289;51.330;4.946;2023-03-03T01:04:55;44.33;;;22.58;;
31694;SDS011;18289;51.330;4.946;2023-03-03T01:07:20;46.67;;;22.65;;
31694;SDS011;18289;51.330;4.946;2023-03-03T01:09:47;45.38;;;21.30;;
31694;SDS011;18289;51.330;4.946;2023-03-03T01:12:12;40.33;;;21.33;;
31694;SDS011;18289;51.330;4.946;2023-03-03T01:14:39;46.42;;;22.73;;
31694;SDS011;18289;51.330;4.946;2023-03-03T01:17:05;45.65;;;22.33;;
31694;SDS011;18289;51.330;4.946;2023-03-03T01:19:33;45.37;;;21.80;;
31694;SDS011;18289;51.330;4.946;2023-03-03T01:21:59;40.33;;;20.95;;
31694;SDS011;18289;51.330;4.946;2023-03-03T01:24:25;44.80;;;22.55;;
31694;SDS011;18289;51.330;4.946;2023-03-03T01:26:51;42.30;;;22.35;;
31694;SDS011;18289;51.330;4.946;2023-03-03T01:29:17;44.67;;;22.08;;
31694;SDS011;18289;51.330;4.946;2023-03-03T01:31:42;43.28;;;21.80;;
31694;SDS011;18289;51.330;4.946;2023-03-03T01:34:08;47.50;;;22.90;;
31694;SDS011;18289;51.330;4.946;2023-03-03T01:36:34;47.20;;;22.65;;
31694;SDS011;18289;51.330;4.946;2023-03-03T01:39:01;46.33;;;21.88;;
31694;SDS011;18289;51.330;4.946;2023-03-03T01:41:27;47.03;;;22.65;;
31694;SDS011;18289;51.330;4.946;2023-03-03T01:43:54;38.92;;;21.02;;
31694;SDS011;18289;51.330;4.946;2023-03-03T01:49:00;43.95;;;21.67;;
31694;SDS011;18289;51.330;4.946;2023-03-03T01:51:33;43.80;;;22.02;;
31694;SDS011;18289;51.330;4.946;2023-03-03T01:54:02;45.65;;;23.15;;
31694;SDS011;18289;51.330;4.946;2023-03-03T01:56:30;45.22;;;21.67;;
31694;SDS011;18289;51.330;4.946;2023-03-03T01:59:00;39.33;;;21.10;;
31694;SDS011;18289;51.330;4.946;2023-03-03T02:01:33;42.00;;;21.65;;
31694;SDS011;18289;51.330;4.946;2023-03-03T02:03:59;42.53;;;22.55;;
31694;SDS011;18289;51.330;4.946;2023-03-03T02:06:36;41.50;;;20.73;;
31694;SDS011;18289;51.330;4.946;2023-03-03T02:09:21;41.58;;;20.63;;
31694;SDS011;18289;51.330;4.946;2023-03-03T02:11:50;38.42;;;20.92;;
31694;SDS011;18289;51.330;4.946;2023-03-03T02:14:18;39.67;;;21.42;;
31694;SDS011;18289;51.330;4.946;2023-03-03T02:16:43;48.38;;;21.15;;
31694;SDS011;18289;51.330;4.946;2023-03-03T02:19:16;37.67;;;20.15;;
31694;SDS011;18289;51.330;4.946;2023-03-03T02:22:12;35.65;;;18.60;;
31694;SDS011;18289;51.330;4.946;2023-03-03T02:24:45;42.40;;;20.10;;
31694;SDS011;18289;51.330;4.946;2023-03-03T02:27:25;38.67;;;19.52;;
31694;SDS011;18289;51.330;4.946;2023-03-03T02:29:55;38.50;;;19.65;;
31694;SDS011;18289;51.330;4.946;2023-03-03T02:32:21;41.17;;;19.83;;
31694;SDS011;18289;51.330;4.946;2023-03-03T02:34:50;34.67;;;19.33;;
31694;SDS011;18289;51.330;4.946;2023-03-03T02:37:17;39.55;;;20.52;;
31694;SDS011;18289;51.330;4.946;2023-03-03T02:39:44;41.67;;;19.90;;
31694;SDS011;18289;51.330;4.946;2023-03-03T02:47:15;34.60;;;17.88;;
31694;SDS011;18289;51.330;4.946;2023-03-03T02:49:40;37.17;;;18.60;;
31694;SDS011;18289;51.330;4.946;2023-03-03T02:52:08;36.15;;;19.65;;
31694;SDS011;18289;51.330;4.946;2023-03-03T02:54:35;36.88;;;19.02;;
31694;SDS011;18289;51.330;4.946;2023-03-03T02:57:02;36.25;;;18.35;;
31694;SDS011;18289;51.330;4.946;2023-03-03T02:59:28;38.03;;;18.77;;
31694;SDS011;18289;51.330;4.946;2023-03-03T03:01:54;40.38;;;19.63;;
31694;SDS011;18289;51.330;4.946;2023-03-03T03:04:21;34.08;;;18.33;;
31694;SDS011;18289;51.330;4.946;2023-03-03T03:06:48;33.55;;;17.42;;
31694;SDS011;18289;51.330;4.946;2023-03-03T03:09:15;34.05;;;18.17;;
31694;SDS011;18289;51.330;4.946;2023-03-03T03:11:42;36.78;;;18.13;;
31694;SDS011;18289;51.330;4.946;2023-03-03T03:14:08;34.17;;;18.83;;
31694;SDS011;18289;51.330;4.946;2023-03-03T03:16:35;31.80;;;17.42;;
31694;SDS011;18289;51.330;4.946;2023-03-03T03:19:02;29.83;;;16.48;;
31694;SDS011;18289;51.330;4.946;2023-03-03T03:21:28;31.25;;;17.75;;
31694;SDS011;18289;51.330;4.946;2023-03-03T03:23:55;29.70;;;16.70;;
31694;SDS011;18289;51.330;4.946;2023-03-03T03:26:21;30.23;;;17.15;;
31694;SDS011;18289;51.330;4.946;2023-03-03T03:28:47;33.20;;;17.38;;
31694;SDS011;18289;51.330;4.946;2023-03-03T03:31:14;33.20;;;16.90;;
31694;SDS011;18289;51.330;4.946;2023-03-03T03:33:40;30.40;;;16.42;;
31694;SDS011;18289;51.330;4.946;2023-03-03T03:36:06;30.60;;;16.27;;
31694;SDS011;18289;51.330;4.946;2023-03-03T03:38:33;29.13;;;17.35;;
31694;SDS011;18289;51.330;4.946;2023-03-03T03:41:01;30.25;;;16.98;;
31694;SDS011;18289;51.330;4.946;2023-03-03T03:43:27;29.25;;;17.23;;
31694;SDS011;18289;51.330;4.946;2023-03-03T03:45:53;33.08;;;17.73;;
31694;SDS011;18289;51.330;4.946;2023-03-03T03:48:19;30.23;;;16.80;;
31694;SDS011;18289;51.330;4.946;2023-03-03T03:50:48;29.55;;;16.35;;
31694;SDS011;18289;51.330;4.946;2023-03-03T03:53:15;28.73;;;16.58;;
31694;SDS011;18289;51.330;4.946;2023-03-03T03:55:41;27.23;;;15.55;;
31694;SDS011;18289;51.330;4.946;2023-03-03T03:58:08;27.38;;;16.00;;
31694;SDS011;18289;51.330;4.946;2023-03-03T04:03:04;25.77;;;14.48;;
31694;SDS011;18289;51.330;4.946;2023-03-03T04:05:29;26.38;;;15.50;;
31694;SDS011;18289;51.330;4.946;2023-03-03T04:07:55;28.67;;;16.02;;
31694;SDS011;18289;51.330;4.946;2023-03-03T04:10:21;24.52;;;14.50;;
31694;SDS011;18289;51.330;4.946;2023-03-03T04:12:49;29.80;;;16.17;;
31694;SDS011;18289;51.330;4.946;2023-03-03T04:15:15;25.15;;;14.85;;
31694;SDS011;18289;51.330;4.946;2023-03-03T04:17:41;25.63;;;15.80;;
31694;SDS011;18289;51.330;4.946;2023-03-03T04:20:07;26.55;;;15.85;;
31694;SDS011;18289;51.330;4.946;2023-03-03T04:25:02;29.38;;;15.40;;
31694;SDS011;18289;51.330;4.946;2023-03-03T04:27:34;26.90;;;15.63;;
31694;SDS011;18289;51.330;4.946;2023-03-03T04:30:01;31.20;;;15.43;;
31694;SDS011;18289;51.330;4.946;2023-03-03T04:32:29;26.85;;;16.02;;
31694;SDS011;18289;51.330;4.946;2023-03-03T04:34:56;28.52;;;15.48;;
31694;SDS011;18289;51.330;4.946;2023-03-03T04:37:22;33.40;;;17.83;;
31694;SDS011;18289;51.330;4.946;2023-03-03T04:39:47;28.13;;;15.65;;
31694;SDS011;18289;51.330;4.946;2023-03-03T04:42:13;29.60;;;16.35;;
31694;SDS011;18289;51.330;4.946;2023-03-03T04:44:39;30.15;;;16.90;;
31694;SDS011;18289;51.330;4.946;2023-03-03T04:47:05;29.35;;;15.85;;
31694;SDS011;18289;51.330;4.946;2023-03-03T04:49:31;30.83;;;16.38;;
31694;SDS011;18289;51.330;4.946;2023-03-03T04:51:57;31.67;;;16.23;;
31694;SDS011;18289;51.330;4.946;2023-03-03T04:54:23;31.30;;;18.00;;
31694;SDS011;18289;51.330;4.946;2023-03-03T04:56:48;28.17;;;16.13;;
31694;SDS011;18289;51.330;4.946;2023-03-03T04:59:14;33.03;;;18.35;;
31694;SDS011;18289;51.330;4.946;2023-03-03T05:01:40;35.70;;;18.83;;
31694;SDS011;18289;51.330;4.946;2023-03-03T05:04:06;30.77;;;17.00;;
31694;SDS011;18289;51.330;4.946;2023-03-03T05:06:31;29.27;;;17.45;;
31694;SDS011;18289;51.330;4.946;2023-03-03T05:08:57;31.63;;;17.27;;
31694;SDS011;18289;51.330;4.946;2023-03-03T05:11:23;34.42;;;16.98;;
31694;SDS011;18289;51.330;4.946;2023-03-03T05:13:49;32.03;;;18.48;;
31694;SDS011;18289;51.330;4.946;2023-03-03T05:16:14;30.05;;;16.42;;
31694;SDS011;18289;51.330;4.946;2023-03-03T05:18:40;30.83;;;16.88;;
31694;SDS011;18289;51.330;4.946;2023-03-03T05:21:06;28.90;;;16.55;;
31694;SDS011;18289;51.330;4.946;2023-03-03T05:23:32;30.40;;;16.15;;
31694;SDS011;18289;51.330;4.946;2023-03-03T05:25:58;29.35;;;16.20;;
31694;SDS011;18289;51.330;4.946;2023-03-03T05:28:23;32.75;;;16.98;;
31694;SDS011;18289;51.330;4.946;2023-03-03T05:30:49;26.77;;;15.95;;
31694;SDS011;18289;51.330;4.946;2023-03-03T05:33:15;32.05;;;16.92;;
31694;SDS011;18289;51.330;4.946;2023-03-03T05:35:41;34.55;;;18.58;;
31694;SDS011;18289;51.330;4.946;2023-03-03T05:38:08;29.38;;;17.02;;
31694;SDS011;18289;51.330;4.946;2023-03-03T05:40:34;36.17;;;18.95;;
31694;SDS011;18289;51.330;4.946;2023-03-03T05:43:00;34.40;;;17.75;;
31694;SDS011;18289;51.330;4.946;2023-03-03T05:45:25;32.72;;;17.02;;
31694;SDS011;18289;51.330;4.946;2023-03-03T05:47:52;34.95;;;18.15;;
31694;SDS011;18289;51.330;4.946;2023-03-03T05:50:18;31.00;;;16.27;;
31694;SDS011;18289;51.330;4.946;2023-03-03T05:52:51;30.25;;;16.27;;
31694;SDS011;18289;51.330;4.946;2023-03-03T05:55:18;27.98;;;14.82;;
31694;SDS011;18289;51.330;4.946;2023-03-03T05:57:43;28.50;;;15.43;;
31694;SDS011;18289;51.330;4.946;2023-03-03T06:00:10;23.85;;;14.45;;
31694;SDS011;18289;51.330;4.946;2023-03-03T06:02:36;24.77;;;14.05;;
31694;SDS011;18289;51.330;4.946;2023-03-03T06:05:02;26.30;;;15.05;;
31694;SDS011;18289;51.330;4.946;2023-03-03T06:07:28;26.85;;;14.50;;
31694;SDS011;18289;51.330;4.946;2023-03-03T06:09:53;25.25;;;13.93;;
31694;SDS011;18289;51.330;4.946;2023-03-03T06:12:19;24.05;;;14.10;;
31694;SDS011;18289;51.330;4.946;2023-03-03T06:14:46;26.27;;;14.57;;
31694;SDS011;18289;51.330;4.946;2023-03-03T06:17:12;26.83;;;14.40;;
31694;SDS011;18289;51.330;4.946;2023-03-03T06:19:37;27.00;;;13.90;;
31694;SDS011;18289;51.330;4.946;2023-03-03T06:22:05;25.75;;;15.68;;
31694;SDS011;18289;51.330;4.946;2023-03-03T06:24:31;24.10;;;14.18;;
31694;SDS011;18289;51.330;4.946;2023-03-03T06:26:57;25.35;;;14.77;;
31694;SDS011;18289;51.330;4.946;2023-03-03T06:29:23;26.15;;;14.73;;
31694;SDS011;18289;51.330;4.946;2023-03-03T06:31:49;25.27;;;14.45;;
31694;SDS011;18289;51.330;4.946;2023-03-03T06:34:15;26.55;;;14.20;;
31694;SDS011;18289;51.330;4.946;2023-03-03T06:36:41;31.50;;;15.73;;
31694;SDS011;18289;51.330;4.946;2023-03-03T06:39:06;28.75;;;14.77;;
31694;SDS011;18289;51.330;4.946;2023-03-03T06:41:32;23.52;;;14.02;;
31694;SDS011;18289;51.330;4.946;2023-03-03T06:43:58;26.80;;;14.80;;
31694;SDS011;18289;51.330;4.946;2023-03-03T06:46:24;24.45;;;13.88;;
31694;SDS011;18289;51.330;4.946;2023-03-03T06:48:50;29.65;;;15.15;;
31694;SDS011;18289;51.330;4.946;2023-03-03T06:51:19;30.92;;;16.30;;
31694;SDS011;18289;51.330;4.946;2023-03-03T06:53:48;25.83;;;14.43;;
31694;SDS011;18289;51.330;4.946;2023-03-03T06:56:16;26.80;;;14.95;;
31694;SDS011;18289;51.330;4.946;2023-03-03T06:58:42;24.50;;;14.25;;
31694;SDS011;18289;51.330;4.946;2023-03-03T07:01:15;27.10;;;14.18;;
31694;SDS011;18289;51.330;4.946;2023-03-03T07:03:41;25.70;;;14.15;;
31694;SDS011;18289;51.330;4.946;2023-03-03T07:06:29;27.45;;;15.50;;
31694;SDS011;18289;51.330;4.946;2023-03-03T07:08:54;30.42;;;15.57;;
31694;SDS011;18289;51.330;4.946;2023-03-03T07:11:21;26.90;;;14.15;;
31694;SDS011;18289;51.330;4.946;2023-03-03T07:13:52;27.27;;;14.75;;
31694;SDS011;18289;51.330;4.946;2023-03-03T07:16:19;29.08;;;16.02;;
31694;SDS011;18289;51.330;4.946;2023-03-03T07:18:54;27.80;;;15.35;;
31694;SDS011;18289;51.330;4.946;2023-03-03T07:21:30;28.92;;;15.00;;
31694;SDS011;18289;51.330;4.946;2023-03-03T07:24:00;28.17;;;15.85;;
31694;SDS011;18289;51.330;4.946;2023-03-03T07:26:42;27.00;;;14.07;;
31694;SDS011;18289;51.330;4.946;2023-03-03T07:31:44;24.00;;;14.13;;
31694;SDS011;18289;51.330;4.946;2023-03-03T07:37:19;28.52;;;14.48;;
31694;SDS011;18289;51.330;4.946;2023-03-03T07:40:28;23.23;;;12.93;;
31694;SDS011;18289;51.330;4.946;2023-03-03T07:42:58;24.63;;;13.90;;
31694;SDS011;18289;51.330;4.946;2023-03-03T07:45:29;24.33;;;13.95;;
31694;SDS011;18289;51.330;4.946;2023-03-03T07:50:33;22.83;;;12.40;;
31694;SDS011;18289;51.330;4.946;2023-03-03T07:52:59;23.02;;;12.75;;
31694;SDS011;18289;51.330;4.946;2023-03-03T07:55:36;20.63;;;12.80;;
31694;SDS011;18289;51.330;4.946;2023-03-03T08:03:04;24.80;;;13.13;;
31694;SDS011;18289;51.330;4.946;2023-03-03T08:05:45;21.38;;;11.95;;
31694;SDS011;18289;51.330;4.946;2023-03-03T08:10:56;20.52;;;11.65;;
31694;SDS011;18289;51.330;4.946;2023-03-03T08:13:24;19.90;;;11.43;;
31694;SDS011;18289;51.330;4.946;2023-03-03T08:15:55;21.05;;;12.20;;
31694;SDS011;18289;51.330;4.946;2023-03-03T08:18:28;22.13;;;12.05;;
31694;SDS011;18289;51.330;4.946;2023-03-03T08:20:58;19.33;;;11.57;;
31694;SDS011;18289;51.330;4.946;2023-03-03T08:23:26;22.20;;;12.10;;
31694;SDS011;18289;51.330;4.946;2023-03-03T08:25:51;25.13;;;12.95;;
31694;SDS011;18289;51.330;4.946;2023-03-03T08:28:18;24.13;;;13.00;;
31694;SDS011;18289;51.330;4.946;2023-03-03T08:30:44;22.05;;;12.40;;
31694;SDS011;18289;51.330;4.946;2023-03-03T08:33:11;20.85;;;12.27;;
31694;SDS011;18289;51.330;4.946;2023-03-03T08:35:38;23.85;;;13.82;;
31694;SDS011;18289;51.330;4.946;2023-03-03T08:38:04;21.33;;;13.70;;
31694;SDS011;18289;51.330;4.946;2023-03-03T08:40:31;22.75;;;13.43;;
31694;SDS011;18289;51.330;4.946;2023-03-03T08:42:56;23.35;;;12.40;;
31694;SDS011;18289;51.330;4.946;2023-03-03T08:45:22;23.38;;;12.02;;
31694;SDS011;18289;51.330;4.946;2023-03-03T08:47:49;21.58;;;12.25;;
31694;SDS011;18289;51.330;4.946;2023-03-03T08:50:16;18.08;;;11.90;;
31694;SDS011;18289;51.330;4.946;2023-03-03T08:52:41;22.63;;;12.95;;
31694;SDS011;18289;51.330;4.946;2023-03-03T08:55:07;22.52;;;11.85;;
31694;SDS011;18289;51.330;4.946;2023-03-03T08:57:33;21.67;;;13.00;;
31694;SDS011;18289;51.330;4.946;2023-03-03T08:59:59;24.15;;;12.15;;
31694;SDS011;18289;51.330;4.946;2023-03-03T09:02:25;22.92;;;12.60;;
31694;SDS011;18289;51.330;4.946;2023-03-03T09:04:50;23.85;;;12.50;;
31694;SDS011;18289;51.330;4.946;2023-03-03T09:07:16;20.33;;;11.93;;
31694;SDS011;18289;51.330;4.946;2023-03-03T09:09:42;22.25;;;12.07;;
31694;SDS011;18289;51.330;4.946;2023-03-03T09:12:18;20.92;;;12.10;;
31694;SDS011;18289;51.330;4.946;2023-03-03T09:14:49;22.40;;;12.43;;
31694;SDS011;18289;51.330;4.946;2023-03-03T09:17:26;21.42;;;11.52;;
31694;SDS011;18289;51.330;4.946;2023-03-03T09:20:03;19.27;;;11.68;;
31694;SDS011;18289;51.330;4.946;2023-03-03T09:22:46;24.52;;;12.07;;
31694;SDS011;18289;51.330;4.946;2023-03-03T09:25:25;19.58;;;11.70;;
31694;SDS011;18289;51.330;4.946;2023-03-03T09:27:59;25.00;;;12.82;;
31694;SDS011;18289;51.330;4.946;2023-03-03T09:30:33;21.05;;;12.57;;
31694;SDS011;18289;51.330;4.946;2023-03-03T09:33:14;19.40;;;12.07;;
31694;SDS011;18289;51.330;4.946;2023-03-03T09:38:56;19.92;;;11.82;;
31694;SDS011;18289;51.330;4.946;2023-03-03T09:50:01;19.35;;;11.70;;
31694;SDS011;18289;51.330;4.946;2023-03-03T09:52:37;20.30;;;10.98;;
31694;SDS011;18289;51.330;4.946;2023-03-03T09:55:24;18.45;;;11.60;;
31694;SDS011;18289;51.330;4.946;2023-03-03T10:03:45;21.05;;;10.93;;
31694;SDS011;18289;51.330;4.946;2023-03-03T10:06:33;18.45;;;10.32;;
31694;SDS011;18289;51.330;4.946;2023-03-03T10:15:22;16.80;;;9.38;;
31694;SDS011;18289;51.330;4.946;2023-03-03T10:25:52;17.20;;;10.20;;
31694;SDS011;18289;51.330;4.946;2023-03-03T10:40:12;14.88;;;9.43;;
31694;SDS011;18289;51.330;4.946;2023-03-03T10:51:23;13.82;;;8.75;;
31694;SDS011;18289;51.330;4.946;2023-03-03T11:02:11;14.65;;;8.80;;
31694;SDS011;18289;51.330;4.946;2023-03-03T11:05:43;14.93;;;9.77;;
31694;SDS011;18289;51.330;4.946;2023-03-03T11:08:16;11.80;;;8.38;;
31694;SDS011;18289;51.330;4.946;2023-03-03T11:41:28;12.02;;;9.07;;
31694;SDS011;18289;51.330;4.946;2023-03-03T11:57:09;10.60;;;7.82;;
31694;SDS011;18289;51.330;4.946;2023-03-03T11:59:41;10.27;;;7.40;;
31694;SDS011;18289;51.330;4.946;2023-03-03T12:05:08;12.63;;;7.30;;
31694;SDS011;18289;51.330;4.946;2023-03-03T12:11:05;9.93;;;6.70;;
31694;SDS011;18289;51.330;4.946;2023-03-03T12:27:29;8.13;;;6.13;;
31694;SDS011;18289;51.330;4.946;2023-03-03T12:33:22;9.00;;;6.15;;
31694;SDS011;18289;51.330;4.946;2023-03-03T12:45:24;8.15;;;6.05;;
31694;SDS011;18289;51.330;4.946;2023-03-03T12:48:08;7.15;;;5.70;;
31694;SDS011;18289;51.330;4.946;2023-03-03T12:56:07;8.05;;;6.03;;
31694;SDS011;18289;51.330;4.946;2023-03-03T13:04:35;6.10;;;5.25;;
31694;SDS011;18289;51.330;4.946;2023-03-03T13:10:42;6.70;;;6.00;;
31694;SDS011;18289;51.330;4.946;2023-03-03T13:13:17;6.43;;;5.70;;
31694;SDS011;18289;51.330;4.946;2023-03-03T13:18:46;7.85;;;7.05;;
31694;SDS011;18289;51.330;4.946;2023-03-03T13:21:15;6.32;;;5.57;;
31694;SDS011;18289;51.330;4.946;2023-03-03T13:27:04;5.80;;;5.07;;
31694;SDS011;18289;51.330;4.946;2023-03-03T13:29:36;6.45;;;5.80;;
31694;SDS011;18289;51.330;4.946;2023-03-03T13:32:19;5.85;;;5.28;;
31694;SDS011;18289;51.330;4.946;2023-03-03T13:34:52;5.68;;;5.07;;
31694;SDS011;18289;51.330;4.946;2023-03-03T13:37:26;7.10;;;5.28;;
31694;SDS011;18289;51.330;4.946;2023-03-03T13:42:37;6.28;;;5.15;;
31694;SDS011;18289;51.330;4.946;2023-03-03T13:50:43;6.70;;;5.93;;
31694;SDS011;18289;51.330;4.946;2023-03-03T14:04:31;6.78;;;5.45;;
31694;SDS011;18289;51.330;4.946;2023-03-03T14:07:18;7.20;;;6.18;;
31694;SDS011;18289;51.330;4.946;2023-03-03T14:09:55;5.82;;;5.07;;
31694;SDS011;18289;51.330;4.946;2023-03-03T14:12:43;6.15;;;5.45;;
31694;SDS011;18289;51.330;4.946;2023-03-03T14:15:30;7.75;;;5.55;;
31694;SDS011;18289;51.330;4.946;2023-03-03T14:21:30;6.88;;;5.75;;
31694;SDS011;18289;51.330;4.946;2023-03-03T14:24:14;6.22;;;4.95;;
31694;SDS011;18289;51.330;4.946;2023-03-03T14:26:49;6.75;;;5.15;;
31694;SDS011;18289;51.330;4.946;2023-03-03T14:31:51;7.05;;;5.10;;
31694;SDS011;18289;51.330;4.946;2023-03-03T14:45:12;6.93;;;4.65;;
31694;SDS011;18289;51.330;4.946;2023-03-03T14:50:50;5.25;;;4.50;;
31694;SDS011;18289;51.330;4.946;2023-03-03T14:53:32;6.95;;;5.03;;
31694;SDS011;18289;51.330;4.946;2023-03-03T14:56:22;6.40;;;4.82;;
31694;SDS011;18289;51.330;4.946;2023-03-03T14:58:52;6.75;;;5.30;;
31694;SDS011;18289;51.330;4.946;2023-03-03T15:01:41;6.53;;;5.22;;
31694;SDS011;18289;51.330;4.946;2023-03-03T15:04:24;9.05;;;5.25;;
31694;SDS011;18289;51.330;4.946;2023-03-03T15:06:52;10.95;;;4.75;;
31694;SDS011;18289;51.330;4.946;2023-03-03T15:12:20;5.88;;;4.28;;
31694;SDS011;18289;51.330;4.946;2023-03-03T15:15:06;7.32;;;4.20;;
31694;SDS011;18289;51.330;4.946;2023-03-03T15:40:34;5.45;;;4.38;;
31694;SDS011;18289;51.330;4.946;2023-03-03T15:43:21;5.63;;;4.70;;
31694;SDS011;18289;51.330;4.946;2023-03-03T15:48:37;6.60;;;4.32;;
31694;SDS011;18289;51.330;4.946;2023-03-03T15:56:50;7.22;;;4.38;;
31694;SDS011;18289;51.330;4.946;2023-03-03T15:59:49;4.97;;;4.32;;
31694;SDS011;18289;51.330;4.946;2023-03-03T16:02:21;5.10;;;4.53;;
31694;SDS011;18289;51.330;4.946;2023-03-03T16:04:51;6.32;;;4.50;;
31694;SDS011;18289;51.330;4.946;2023-03-03T16:07:25;4.70;;;4.05;;
31694;SDS011;18289;51.330;4.946;2023-03-03T16:10:09;6.57;;;4.40;;
31694;SDS011;18289;51.330;4.946;2023-03-03T16:18:40;7.63;;;4.63;;
31694;SDS011;18289;51.330;4.946;2023-03-03T16:21:33;7.53;;;4.65;;
31694;SDS011;18289;51.330;4.946;2023-03-03T16:33:20;6.45;;;4.25;;
31694;SDS011;18289;51.330;4.946;2023-03-03T16:38:34;7.60;;;4.25;;
31694;SDS011;18289;51.330;4.946;2023-03-03T16:41:12;7.53;;;4.50;;
31694;SDS011;18289;51.330;4.946;2023-03-03T16:46:30;7.00;;;4.75;;
31694;SDS011;18289;51.330;4.946;2023-03-03T16:52:12;6.07;;;4.22;;
31694;SDS011;18289;51.330;4.946;2023-03-03T16:54:58;6.47;;;4.18;;
31694;SDS011;18289;51.330;4.946;2023-03-03T17:00:26;6.75;;;4.10;;
31694;SDS011;18289;51.330;4.946;2023-03-03T17:10:42;7.38;;;4.20;;
31694;SDS011;18289;51.330;4.946;2023-03-03T17:21:26;9.73;;;3.50;;
31694;SDS011;18289;51.330;4.946;2023-03-03T17:34:43;4.90;;;2.90;;
31694;SDS011;18289;51.330;4.946;2023-03-03T17:46:23;4.03;;;3.00;;
31694;SDS011;18289;51.330;4.946;2023-03-03T17:49:09;5.45;;;2.92;;
31694;SDS011;18289;51.330;4.946;2023-03-03T18:03:10;3.08;;;2.78;;
31694;SDS011;18289;51.330;4.946;2023-03-03T18:05:59;3.03;;;2.53;;
31694;SDS011;18289;51.330;4.946;2023-03-03T18:08:59;4.63;;;2.45;;
31694;SDS011;18289;51.330;4.946;2023-03-03T18:23:18;4.80;;;2.70;;
31694;SDS011;18289;51.330;4.946;2023-03-03T18:25:56;2.65;;;2.40;;
31694;SDS011;18289;51.330;4.946;2023-03-03T18:28:43;3.58;;;2.88;;
31694;SDS011;18289;51.330;4.946;2023-03-03T18:31:29;3.53;;;2.70;;
31694;SDS011;18289;51.330;4.946;2023-03-03T18:34:08;5.78;;;2.60;;
31694;SDS011;18289;51.330;4.946;2023-03-03T18:36:56;5.45;;;2.70;;
31694;SDS011;18289;51.330;4.946;2023-03-03T18:42:03;7.05;;;3.88;;
31694;SDS011;18289;51.330;4.946;2023-03-03T18:44:55;3.45;;;2.75;;
31694;SDS011;18289;51.330;4.946;2023-03-03T18:48:08;3.33;;;2.90;;
31694;SDS011;18289;51.330;4.946;2023-03-03T18:53:14;3.80;;;3.45;;
31694;SDS011;18289;51.330;4.946;2023-03-03T18:55:55;4.53;;;3.22;;
31694;SDS011;18289;51.330;4.946;2023-03-03T18:58:30;6.47;;;3.67;;
31694;SDS011;18289;51.330;4.946;2023-03-03T19:03:36;3.53;;;3.22;;
31694;SDS011;18289;51.330;4.946;2023-03-03T19:06:53;4.25;;;3.55;;
31694;SDS011;18289;51.330;4.946;2023-03-03T19:09:18;3.97;;;3.63;;
31694;SDS011;18289;51.330;4.946;2023-03-03T19:12:07;4.13;;;3.60;;
31694;SDS011;18289;51.330;4.946;2023-03-03T19:14:39;5.95;;;4.10;;
31694;SDS011;18289;51.330;4.946;2023-03-03T19:20:08;6.80;;;4.30;;
31694;SDS011;18289;51.330;4.946;2023-03-03T19:25:17;6.00;;;4.60;;
31694;SDS011;18289;51.330;4.946;2023-03-03T19:28:02;5.38;;;4.50;;
31694;SDS011;18289;51.330;4.946;2023-03-03T19:30:57;7.78;;;4.18;;
31694;SDS011;18289;51.330;4.946;2023-03-03T19:33:32;10.68;;;5.22;;
31694;SDS011;18289;51.330;4.946;2023-03-03T19:36:36;4.63;;;4.20;;
31694;SDS011;18289;51.330;4.946;2023-03-03T19:42:29;6.13;;;3.85;;
31694;SDS011;18289;51.330;4.946;2023-03-03T19:54:20;5.78;;;4.28;;
31694;SDS011;18289;51.330;4.946;2023-03-03T19:57:08;5.82;;;5.28;;
31694;SDS011;18289;51.330;4.946;2023-03-03T19:59:51;6.10;;;4.60;;
31694;SDS011;18289;51.330;4.946;2023-03-03T20:08:20;7.55;;;4.80;;
31694;SDS011;18289;51.330;4.946;2023-03-03T20:13:59;8.18;;;5.70;;
31694;SDS011;18289;51.330;4.946;2023-03-03T20:16:36;10.10;;;6.20;;
31694;SDS011;18289;51.330;4.946;2023-03-03T20:19:08;6.90;;;6.13;;
31694;SDS011;18289;51.330;4.946;2023-03-03T20:27:04;5.88;;;5.32;;
31694;SDS011;18289;51.330;4.946;2023-03-03T20:38:03;6.15;;;5.47;;
31694;SDS011;18289;51.330;4.946;2023-03-03T20:41:16;9.80;;;5.68;;
31694;SDS011;18289;51.330;4.946;2023-03-03T21:02:42;8.52;;;5.72;;
31694;SDS011;18289;51.330;4.946;2023-03-03T21:05:21;6.25;;;5.63;;
31694;SDS011;18289;51.330;4.946;2023-03-03T21:08:03;7.20;;;6.00;;
31694;SDS011;18289;51.330;4.946;2023-03-03T21:10:32;6.97;;;5.68;;
31694;SDS011;18289;51.330;4.946;2023-03-03T21:16:05;11.18;;;6.35;;
31694;SDS011;18289;51.330;4.946;2023-03-03T21:18:40;6.50;;;5.60;;
31694;SDS011;18289;51.330;4.946;2023-03-03T21:23:35;5.63;;;5.13;;
31694;SDS011;18289;51.330;4.946;2023-03-03T21:26:01;8.70;;;5.43;;
31694;SDS011;18289;51.330;4.946;2023-03-03T21:36:23;8.35;;;5.80;;
31694;SDS011;18289;51.330;4.946;2023-03-03T21:39:22;7.25;;;4.95;;
31694;SDS011;18289;51.330;4.946;2023-03-03T21:44:30;9.07;;;5.55;;
31694;SDS011;18289;51.330;4.946;2023-03-03T21:47:03;13.35;;;5.85;;
31694;SDS011;18289;51.330;4.946;2023-03-03T21:49:30;12.18;;;5.75;;
31694;SDS011;18289;51.330;4.946;2023-03-03T21:51:56;9.85;;;5.47;;
31694;SDS011;18289;51.330;4.946;2023-03-03T21:54:22;12.80;;;6.00;;
31694;SDS011;18289;51.330;4.946;2023-03-03T21:56:48;17.23;;;6.15;;
31694;SDS011;18289;51.330;4.946;2023-03-03T21:59:14;10.93;;;5.30;;
31694;SDS011;18289;51.330;4.946;2023-03-03T22:01:43;12.68;;;6.78;;
31694;SDS011;18289;51.330;4.946;2023-03-03T22:04:10;16.55;;;7.03;;
31694;SDS011;18289;51.330;4.946;2023-03-03T22:06:36;12.15;;;5.68;;
31694;SDS011;18289;51.330;4.946;2023-03-03T22:09:02;11.13;;;5.38;;
31694;SDS011;18289;51.330;4.946;2023-03-03T22:11:29;9.73;;;4.85;;
31694;SDS011;18289;51.330;4.946;2023-03-03T22:13:54;11.68;;;6.65;;
31694;SDS011;18289;51.330;4.946;2023-03-03T22:16:20;14.77;;;5.53;;